createdAt,value
2022-09-10T00:01:26.476Z,83.02
2022-09-10T00:03:54.624Z,82.61
2022-09-10T00:06:25.961Z,81.89
2022-09-10T00:08:52.912Z,82.32
2022-09-10T00:11:20.734Z,83.52
2022-09-10T00:13:47.289Z,83.42
2022-09-10T00:16:15.706Z,83.19
2022-09-10T00:18:43.562Z,84.18
2022-09-10T00:21:13.059Z,83.16
2022-09-10T00:23:40.367Z,83.11
2022-09-10T00:26:26.696Z,83.62
2022-09-10T00:28:55.611Z,83.35
2022-09-10T00:31:23.674Z,83.17
2022-09-10T00:33:51.206Z,83.50
2022-09-10T00:36:24.107Z,84.49
2022-09-10T00:38:51.862Z,84.35
2022-09-10T00:41:21.142Z,84.24
2022-09-10T00:43:57.967Z,84.18
2022-09-10T00:46:25.237Z,83.50
2022-09-10T00:48:54.036Z,82.72
2022-09-10T00:51:20.873Z,82.48
2022-09-10T00:53:47.322Z,81.62
2022-09-10T00:56:14.271Z,82.30
2022-09-10T00:58:43.099Z,82.28
2022-09-10T01:01:09.640Z,81.30
2022-09-10T01:03:36.406Z,81.45
2022-09-10T01:06:03.176Z,83.70
2022-09-10T01:08:29.707Z,85.39
2022-09-10T01:11:23.851Z,84.10
2022-09-10T01:13:52.884Z,83.47
2022-09-10T01:16:32.439Z,84.27
2022-09-10T01:19:44.157Z,84.57
2022-09-10T01:22:32.455Z,85.06
2022-09-10T01:25:01.889Z,83.65
2022-09-10T01:27:44.869Z,85.04
2022-09-10T01:30:32.931Z,84.31
2022-09-10T01:33:44.481Z,83.48
2022-09-10T01:36:16.733Z,83.24
2022-09-10T01:38:43.371Z,82.56
2022-09-10T01:41:10.267Z,82.83
2022-09-10T01:43:36.619Z,82.50
2022-09-10T01:46:31.746Z,83.23
2022-09-10T01:49:18.684Z,82.36
2022-09-10T01:52:26.297Z,82.34
2022-09-10T01:55:21.812Z,82.40
2022-09-10T01:58:06.959Z,82.07
2022-09-10T02:00:38.148Z,82.64
2022-09-10T02:03:16.143Z,82.62
2022-09-10T02:05:45.103Z,82.94
2022-09-10T02:08:17.377Z,81.73
2022-09-10T02:11:01.543Z,83.34
2022-09-10T02:13:29.864Z,84.47
2022-09-10T02:15:56.659Z,83.59
2022-09-10T02:18:25.327Z,83.26
2022-09-10T02:20:58.051Z,82.73
2022-09-10T02:23:50.636Z,83.10
2022-09-10T02:26:17.214Z,83.27
2022-09-10T02:28:44.287Z,82.67
2022-09-10T02:31:11.105Z,82.90
2022-09-10T02:33:37.601Z,81.86
2022-09-10T02:36:04.053Z,82.23
2022-09-10T02:38:30.509Z,82.17
2022-09-10T02:40:58.372Z,82.49
2022-09-10T02:43:26.323Z,83.96
2022-09-10T02:45:57.173Z,83.71
2022-09-10T02:48:27.412Z,85.16
2022-09-10T02:50:54.273Z,85.66
2022-09-10T02:53:21.054Z,86.09
2022-09-10T02:55:48.742Z,87.32
2022-09-10T02:58:16.493Z,88.37
2022-09-10T03:00:43.754Z,88.27
2022-09-10T03:03:10.253Z,88.64
2022-09-10T03:05:38.279Z,87.57
2022-09-10T03:08:06.171Z,89.07
2022-09-10T03:10:33.093Z,89.05
2022-09-10T03:12:59.801Z,89.74
2022-09-10T03:15:26.982Z,89.24
2022-09-10T03:17:53.477Z,88.01
2022-09-10T03:20:22.928Z,89.15
2022-09-10T03:22:52.093Z,89.54
2022-09-10T03:25:19.256Z,90.10
2022-09-10T03:27:45.752Z,89.24
2022-09-10T03:30:12.535Z,88.76
2022-09-10T03:32:39.049Z,88.79
2022-09-10T03:35:06.090Z,88.52
2022-09-10T03:37:32.513Z,88.88
2022-09-10T03:39:58.942Z,89.37
2022-09-10T03:42:25.398Z,89.68
2022-09-10T03:44:52.116Z,90.50
2022-09-10T03:47:18.557Z,92.46
2022-09-10T03:49:44.972Z,93.97
2022-09-10T03:52:12.698Z,93.04
2022-09-10T03:54:39.957Z,92.72
2022-09-10T03:57:06.431Z,93.34
2022-09-10T03:59:32.887Z,94.55
2022-09-10T04:01:59.353Z,94.45
2022-09-10T04:04:25.927Z,94.87
2022-09-10T04:06:55.418Z,94.34
2022-09-10T04:09:21.830Z,93.39
2022-09-10T04:11:48.243Z,93.90
2022-09-10T04:14:15.580Z,94.61
2022-09-10T04:16:41.979Z,94.02
2022-09-10T04:19:08.521Z,91.98
2022-09-10T04:21:34.886Z,92.44
2022-09-10T04:24:01.975Z,91.59
2022-09-10T04:26:28.514Z,92.55
2022-09-10T04:28:54.899Z,93.15
2022-09-10T04:31:22.517Z,92.33
2022-09-10T04:33:49.419Z,92.12
2022-09-10T04:36:16.044Z,91.12
2022-09-10T04:38:43.344Z,90.52
2022-09-10T04:41:09.958Z,90.09
2022-09-10T04:43:36.851Z,89.33
2022-09-10T04:46:03.313Z,88.18
2022-09-10T04:48:29.797Z,87.98
2022-09-10T04:51:15.366Z,87.39
2022-09-10T04:53:42.369Z,87.01
2022-09-10T04:56:08.880Z,86.72
2022-09-10T04:58:38.722Z,86.72
2022-09-10T05:01:06.146Z,85.86
2022-09-10T05:03:33.637Z,87.87
2022-09-10T05:06:00.012Z,87.63
2022-09-10T05:08:26.431Z,86.96
2022-09-10T05:10:53.339Z,87.29
2022-09-10T05:13:19.863Z,87.62
2022-09-10T05:15:46.498Z,86.88
2022-09-10T05:18:12.913Z,88.16
2022-09-10T05:20:39.384Z,89.21
2022-09-10T05:23:06.014Z,88.73
2022-09-10T05:25:34.403Z,89.15
2022-09-10T05:28:01.621Z,88.18
2022-09-10T05:30:32.638Z,89.08
2022-09-10T05:33:00.880Z,89.27
2022-09-10T05:35:28.835Z,91.59
2022-09-10T05:37:58.799Z,90.17
2022-09-10T05:40:25.402Z,89.84
2022-09-10T05:42:52.013Z,90.05
2022-09-10T05:45:19.336Z,89.18
2022-09-10T05:47:46.322Z,89.10
2022-09-10T05:50:14.219Z,88.60
2022-09-10T05:52:40.653Z,88.00
2022-09-10T05:55:07.615Z,88.13
2022-09-10T05:57:34.153Z,87.65
2022-09-10T06:00:01.194Z,88.19
2022-09-10T06:02:27.743Z,87.71
2022-09-10T06:04:54.275Z,85.73
2022-09-10T06:07:20.632Z,85.86
2022-09-10T06:09:47.133Z,86.66
2022-09-10T06:12:13.580Z,86.35
2022-09-10T06:14:39.984Z,86.30
2022-09-10T06:17:06.418Z,85.56
2022-09-10T06:19:32.811Z,86.55
2022-09-10T06:21:59.247Z,88.77
2022-09-10T06:24:25.808Z,88.70
2022-09-10T06:26:52.184Z,88.27
2022-09-10T06:29:22.540Z,87.74
2022-09-10T06:31:49.272Z,86.76
2022-09-10T06:34:19.057Z,85.64
2022-09-10T06:36:49.344Z,84.59
2022-09-10T06:39:16.773Z,83.39
2022-09-10T06:41:46.837Z,82.55
2022-09-10T06:44:16.279Z,80.72
2022-09-10T06:49:31.317Z,80.96
2022-09-10T06:51:57.754Z,82.65
2022-09-10T06:54:26.372Z,81.14
2022-09-10T06:56:52.768Z,81.16
2022-09-10T06:59:19.312Z,78.09
2022-09-10T07:01:47.310Z,77.17
2022-09-10T07:04:14.104Z,76.35
2022-09-10T07:06:40.477Z,75.25
2022-09-10T07:09:06.943Z,76.89
2022-09-10T07:11:35.932Z,76.66
2022-09-10T07:14:06.188Z,77.57
2022-09-10T07:16:32.579Z,78.67
2022-09-10T07:19:00.258Z,81.28
2022-09-10T07:21:28.212Z,82.99
2022-09-10T07:24:01.185Z,81.41
2022-09-10T07:26:28.248Z,80.35
2022-09-10T07:28:55.973Z,81.29
2022-09-10T07:31:30.871Z,80.95
2022-09-10T07:33:58.149Z,82.08
2022-09-10T07:36:25.292Z,80.36
2022-09-10T07:38:57.573Z,80.58
2022-09-10T07:41:28.019Z,80.46
2022-09-10T07:43:55.455Z,82.21
2022-09-10T07:46:22.414Z,81.63
2022-09-10T07:48:52.679Z,81.56
2022-09-10T07:51:19.420Z,80.86
2022-09-10T07:53:50.652Z,83.78
2022-09-10T07:56:17.529Z,84.94
2022-09-10T07:58:44.807Z,84.35
2022-09-10T08:01:12.717Z,84.99
2022-09-10T08:03:40.277Z,84.80
2022-09-10T08:06:08.333Z,86.04
2022-09-10T08:08:38.245Z,87.12
2022-09-10T08:11:12.967Z,87.10
2022-09-10T08:13:41.513Z,87.79
2022-09-10T08:16:15.084Z,87.34
2022-09-10T08:18:43.069Z,86.29
2022-09-10T08:21:09.641Z,86.64
2022-09-10T08:23:37.209Z,85.74
2022-09-10T08:26:05.270Z,83.39
2022-09-10T08:28:32.322Z,84.05
2022-09-10T08:31:10.262Z,85.03
2022-09-10T08:33:41.016Z,84.01
2022-09-10T08:36:11.963Z,83.16
2022-09-10T08:38:39.856Z,82.38
2022-09-10T08:41:38.300Z,81.84
2022-09-10T08:44:23.639Z,82.20
2022-09-10T08:47:02.764Z,82.99
2022-09-10T08:49:43.041Z,83.82
2022-09-10T08:52:22.409Z,83.76
2022-09-10T08:55:17.339Z,82.89
2022-09-10T08:57:50.530Z,82.88
2022-09-10T09:00:26.029Z,82.94
2022-09-10T09:03:07.886Z,83.76
2022-09-10T09:05:45.643Z,83.23
2022-09-10T09:08:16.600Z,85.27
2022-09-10T09:11:15.435Z,85.49
2022-09-10T09:14:25.190Z,86.04
2022-09-10T09:16:59.808Z,85.29
2022-09-10T09:19:35.075Z,85.98
2022-09-10T09:22:28.664Z,84.74
2022-09-10T09:25:02.905Z,84.40
2022-09-10T09:27:38.300Z,85.89
2022-09-10T09:30:17.239Z,84.60
2022-09-10T09:32:46.397Z,84.42
2022-09-10T09:35:30.660Z,85.78
2022-09-10T09:38:10.813Z,84.75
2022-09-10T09:40:46.099Z,83.92
2022-09-10T09:43:51.384Z,80.76
2022-09-10T09:46:20.231Z,82.22
2022-09-10T09:48:48.218Z,81.69
2022-09-10T09:51:21.053Z,82.57
2022-09-10T09:54:12.115Z,82.07
2022-09-10T09:56:46.331Z,82.20
2022-09-10T09:59:26.694Z,84.14
2022-09-10T10:01:55.649Z,83.99
2022-09-10T10:04:26.705Z,82.82
2022-09-10T10:06:59.020Z,83.95
2022-09-10T10:09:31.393Z,83.41
2022-09-10T10:12:09.254Z,85.17
2022-09-10T10:14:41.619Z,86.07
2022-09-10T10:17:38.682Z,84.87
2022-09-10T10:20:08.455Z,86.01
2022-09-10T10:22:37.476Z,85.44
2022-09-10T10:25:06.935Z,84.84
2022-09-10T10:27:51.291Z,85.38
2022-09-10T10:30:18.168Z,83.33
2022-09-10T10:32:51.484Z,83.59
2022-09-10T10:35:33.124Z,82.00
2022-09-10T10:38:17.248Z,83.44
2022-09-10T10:41:05.347Z,83.14
2022-09-10T10:43:53.354Z,81.30
2022-09-10T10:46:22.136Z,82.73
2022-09-10T10:49:07.183Z,82.85
2022-09-10T10:52:03.982Z,83.88
2022-09-10T10:55:00.554Z,84.74
2022-09-10T10:57:48.398Z,83.35
2022-09-10T11:00:17.388Z,84.82
2022-09-10T11:02:50.412Z,83.44
2022-09-10T11:05:31.171Z,83.84
2022-09-10T11:08:15.801Z,79.36
2022-09-10T11:10:53.794Z,77.04
2022-09-10T11:13:25.657Z,73.07
2022-09-10T11:16:01.201Z,73.69
2022-09-10T11:18:34.506Z,75.20
2022-09-10T11:21:22.107Z,72.03
2022-09-10T11:24:01.428Z,70.29
2022-09-10T11:26:36.488Z,66.51
2022-09-10T11:29:34.371Z,66.49
2022-09-10T11:32:12.979Z,59.99
2022-09-10T11:34:54.940Z,54.64
2022-09-10T11:37:42.281Z,59.07
2022-09-10T11:40:18.209Z,54.62
2022-09-10T11:42:52.209Z,54.88
2022-09-10T11:45:36.226Z,55.39
2022-09-10T11:48:11.220Z,56.00
2022-09-10T11:50:51.282Z,55.24
2022-09-10T11:53:21.751Z,53.07
2022-09-10T11:56:34.534Z,51.44
2022-09-10T11:59:43.145Z,56.54
2022-09-10T12:02:37.269Z,58.95
2022-09-10T12:05:25.744Z,58.07
2022-09-10T12:08:06.903Z,54.64
2022-09-10T12:11:04.542Z,59.51
2022-09-10T12:13:33.194Z,58.15
2022-09-10T12:16:18.518Z,59.17
2022-09-10T12:18:50.291Z,62.67
2022-09-10T12:21:32.403Z,61.89
2022-09-10T12:24:02.248Z,63.08
2022-09-10T12:26:29.110Z,64.38
2022-09-10T12:29:04.226Z,64.51
2022-09-10T12:32:13.515Z,62.90
2022-09-10T12:34:40.983Z,62.51
2022-09-10T12:37:21.361Z,65.02
2022-09-10T12:39:48.974Z,63.44
2022-09-10T12:42:30.510Z,63.17
2022-09-10T12:44:57.348Z,63.44
2022-09-10T12:47:33.130Z,61.80
2022-09-10T12:50:04.412Z,62.47
2022-09-10T12:52:45.981Z,60.85
2022-09-10T12:55:21.621Z,63.16
2022-09-10T12:58:23.844Z,62.53
2022-09-10T13:00:56.286Z,61.29
2022-09-10T13:03:25.549Z,60.10
2022-09-10T13:05:55.567Z,58.66
2022-09-10T13:08:38.220Z,59.75
2022-09-10T13:11:05.696Z,60.63
2022-09-10T13:13:35.732Z,63.69
2022-09-10T13:16:04.057Z,62.05
2022-09-10T13:18:33.839Z,60.05
2022-09-10T13:21:22.959Z,61.78
2022-09-10T13:23:54.015Z,59.01
2022-09-10T13:26:33.880Z,59.75
2022-09-10T13:29:08.398Z,61.27
2022-09-10T13:31:39.196Z,61.99
2022-09-10T13:34:14.447Z,62.58
2022-09-10T13:36:59.840Z,63.98
2022-09-10T13:40:11.453Z,65.40
2022-09-10T13:42:47.234Z,66.46
2022-09-10T13:45:30.429Z,67.98
2022-09-10T13:48:02.872Z,68.19
2022-09-10T13:50:46.046Z,70.80
2022-09-10T13:53:14.654Z,71.99
2022-09-10T13:55:50.510Z,73.69
2022-09-10T13:58:21.204Z,72.01
2022-09-10T14:01:00.869Z,72.55
2022-09-10T14:03:33.286Z,72.94
2022-09-10T14:06:05.054Z,73.35
2022-09-10T14:08:38.773Z,73.87
2022-09-10T14:11:19.292Z,75.04
2022-09-10T14:13:45.647Z,75.77
2022-09-10T14:16:20.154Z,75.83
2022-09-10T14:18:53.541Z,76.88
2022-09-10T14:21:26.867Z,77.02
2022-09-10T14:23:58.854Z,75.73
2022-09-10T14:26:31.621Z,75.07
2022-09-10T14:29:25.126Z,75.09
2022-09-10T14:31:51.655Z,77.45
2022-09-10T14:34:32.263Z,77.04
2022-09-10T14:37:22.184Z,76.59
2022-09-10T14:39:48.776Z,77.55
2022-09-10T14:42:27.416Z,76.33
2022-09-10T14:44:54.326Z,79.10
2022-09-10T14:47:29.984Z,80.88
2022-09-10T14:50:31.760Z,80.74
2022-09-10T14:52:58.752Z,81.11
2022-09-10T14:55:28.231Z,82.63
2022-09-10T14:57:55.706Z,83.11
2022-09-10T15:00:23.395Z,83.47
2022-09-10T15:02:51.844Z,83.88
2022-09-10T15:05:18.485Z,84.00
2022-09-10T15:07:45.522Z,84.29
2022-09-10T15:10:12.351Z,81.18
2022-09-10T15:12:41.657Z,81.20
2022-09-10T15:15:17.473Z,78.25
2022-09-10T15:17:44.477Z,78.78
2022-09-10T15:20:16.815Z,77.40
2022-09-10T15:22:44.208Z,76.54
2022-09-10T15:25:33.844Z,75.88
2022-09-10T15:28:02.584Z,76.44
2022-09-10T15:30:28.971Z,72.05
2022-09-10T15:32:55.376Z,74.00
2022-09-10T15:35:23.218Z,75.29
2022-09-10T15:37:51.171Z,76.86
2022-09-10T15:40:17.675Z,77.76
2022-09-10T15:42:44.245Z,77.70
2022-09-10T15:45:11.006Z,78.70
2022-09-10T15:47:37.459Z,76.86
2022-09-10T15:50:04.738Z,78.74
2022-09-10T15:52:31.164Z,77.24
2022-09-10T15:54:57.641Z,78.43
2022-09-10T15:57:24.105Z,78.56
2022-09-10T15:59:50.513Z,77.86
2022-09-10T16:02:18.377Z,77.63
2022-09-10T16:04:44.816Z,77.40
2022-09-10T16:07:11.564Z,76.62
2022-09-10T16:09:37.967Z,77.23
2022-09-10T16:12:04.631Z,78.66
2022-09-10T16:14:32.618Z,78.12
2022-09-10T16:16:59.377Z,78.97
2022-09-10T16:19:25.739Z,81.78
2022-09-10T16:21:52.983Z,81.35
2022-09-10T16:24:19.567Z,81.33
2022-09-10T16:26:47.842Z,82.53
2022-09-10T16:29:16.842Z,84.10
2022-09-10T16:31:45.969Z,83.95
2022-09-10T16:34:18.754Z,85.77
2022-09-10T16:36:48.680Z,85.33
2022-09-10T16:39:16.392Z,83.99
2022-09-10T16:41:45.226Z,86.71
2022-09-10T16:44:14.690Z,85.44
2022-09-10T16:46:42.332Z,83.74
2022-09-10T16:49:14.500Z,84.36
2022-09-10T16:51:42.812Z,85.33
2022-09-10T16:54:09.926Z,86.15
2022-09-10T16:56:42.200Z,85.49
2022-09-10T16:59:14.883Z,84.83
2022-09-10T17:01:48.152Z,84.14
2022-09-10T17:04:19.957Z,85.67
2022-09-10T17:06:48.904Z,85.27
2022-09-10T17:09:15.714Z,85.48
2022-09-10T17:11:42.124Z,85.85
2022-09-10T17:14:08.642Z,85.31
2022-09-10T17:16:44.748Z,83.90
2022-09-10T17:19:13.789Z,85.63
2022-09-10T17:24:11.346Z,86.89
2022-09-10T17:26:39.026Z,85.60
2022-09-10T17:29:10.874Z,85.88
2022-09-10T17:31:37.294Z,86.90
2022-09-10T17:34:04.328Z,88.37
2022-09-10T17:36:32.184Z,86.56
2022-09-10T17:38:59.156Z,87.31
2022-09-10T17:41:28.484Z,87.56
2022-09-10T17:43:55.639Z,86.23
2022-09-10T17:46:22.679Z,86.55
2022-09-10T17:48:52.554Z,88.65
2022-09-10T17:51:24.022Z,87.62
2022-09-10T17:53:52.086Z,87.21
2022-09-10T17:56:19.694Z,88.37
2022-09-10T17:58:47.288Z,87.52
2022-09-10T18:01:23.648Z,87.16
2022-09-10T18:03:50.948Z,86.83
2022-09-10T18:06:17.460Z,88.42
2022-09-10T18:08:44.101Z,87.62
2022-09-10T18:11:15.189Z,88.74
2022-09-10T18:13:42.174Z,87.64
2022-09-10T18:16:11.558Z,87.97
2022-09-10T18:18:39.272Z,88.01
2022-09-10T18:21:16.766Z,88.75
2022-09-10T18:23:44.273Z,87.50
2022-09-10T18:26:19.260Z,87.90
2022-09-10T18:29:06.397Z,87.78
2022-09-10T18:31:35.423Z,89.29
2022-09-10T18:34:02.349Z,88.79
2022-09-10T18:36:28.799Z,87.10
2022-09-10T18:38:55.350Z,87.30
2022-09-10T18:41:28.065Z,87.47
2022-09-10T18:43:58.307Z,86.92
2022-09-10T18:46:26.221Z,86.94
2022-09-10T18:48:53.446Z,85.83
2022-09-10T18:51:22.409Z,87.00
2022-09-10T18:53:52.381Z,86.28
2022-09-10T18:56:20.633Z,86.71
2022-09-10T18:58:51.852Z,86.60
2022-09-10T19:01:18.690Z,86.60
2022-09-10T19:03:47.542Z,86.68
2022-09-10T19:06:20.324Z,86.91
2022-09-10T19:08:55.027Z,86.10
2022-09-10T19:11:24.554Z,85.88
2022-09-10T19:13:53.827Z,86.62
2022-09-10T19:16:23.250Z,85.42
2022-09-10T19:18:57.613Z,86.34
2022-09-10T19:21:26.339Z,86.57
2022-09-10T19:23:59.350Z,85.72
2022-09-10T19:26:28.509Z,87.28
2022-09-10T19:28:59.037Z,86.02
2022-09-10T19:31:27.190Z,86.17
2022-09-10T19:33:58.034Z,85.62
2022-09-10T19:36:30.322Z,85.43
2022-09-10T19:38:57.380Z,85.31
2022-09-10T19:41:25.389Z,85.57
2022-09-10T19:43:53.328Z,85.23
2022-09-10T19:46:21.290Z,85.16
2022-09-10T19:48:48.638Z,85.31
2022-09-10T19:51:17.436Z,85.93
2022-09-10T19:53:44.131Z,85.43
2022-09-10T19:56:20.292Z,85.25
2022-09-10T19:58:49.899Z,86.73
2022-09-10T20:01:28.268Z,85.40
2022-09-10T20:03:56.168Z,87.49
2022-09-10T20:06:25.483Z,88.98
2022-09-10T20:08:52.787Z,88.60
2022-09-10T20:11:25.014Z,90.48
2022-09-10T20:14:02.658Z,88.71
2022-09-10T20:16:30.112Z,87.95
2022-09-10T20:18:56.939Z,88.90
2022-09-10T20:21:26.702Z,90.25
2022-09-10T20:23:56.234Z,87.91
2022-09-10T20:26:25.360Z,88.85
2022-09-10T20:28:55.693Z,90.61
2022-09-10T20:31:24.445Z,89.88
2022-09-10T20:33:56.411Z,89.07
2022-09-10T20:36:24.020Z,89.65
2022-09-10T20:38:52.087Z,90.31
2022-09-10T20:41:18.788Z,91.94
2022-09-10T20:43:51.611Z,90.69
2022-09-10T20:46:20.141Z,91.47
2022-09-10T20:48:49.245Z,92.34
2022-09-10T20:51:17.769Z,91.44
2022-09-10T20:53:45.130Z,91.51
2022-09-10T20:56:17.549Z,91.83
2022-09-10T20:58:44.840Z,91.56
2022-09-10T21:01:17.032Z,92.52
2022-09-10T21:03:43.616Z,91.59
2022-09-10T21:06:12.380Z,93.93
2022-09-10T21:08:40.862Z,94.05
2022-09-10T21:11:12.738Z,93.77
2022-09-10T21:13:50.373Z,93.64
2022-09-10T21:16:38.625Z,93.78
2022-09-10T21:19:10.886Z,92.36
2022-09-10T21:21:39.395Z,92.73
2022-09-10T21:24:12.471Z,93.53
2022-09-10T21:26:40.556Z,93.69
2022-09-10T21:29:10.712Z,93.60
2022-09-10T21:31:37.127Z,94.02
2022-09-10T21:34:04.627Z,94.02
2022-09-10T21:36:32.782Z,94.47
2022-09-10T21:39:00.903Z,94.35
2022-09-10T21:41:30.959Z,94.00
2022-09-10T21:43:58.451Z,93.26
2022-09-10T21:46:24.923Z,93.09
2022-09-10T21:48:51.326Z,92.72
2022-09-10T21:51:19.707Z,92.81
2022-09-10T21:53:46.819Z,92.19
2022-09-10T21:56:15.787Z,92.40
2022-09-10T21:58:43.776Z,92.60
2022-09-10T22:01:12.413Z,92.84
2022-09-10T22:03:39.834Z,92.61
2022-09-10T22:06:07.152Z,92.33
2022-09-10T22:08:34.328Z,91.75
2022-09-10T22:11:06.441Z,92.26
2022-09-10T22:13:33.682Z,92.44
2022-09-10T22:16:00.143Z,92.49
2022-09-10T22:18:26.671Z,92.75
2022-09-10T22:21:03.455Z,92.45
2022-09-10T22:23:32.676Z,95.79
2022-09-10T22:26:10.874Z,95.04
2022-09-10T22:28:38.371Z,94.75
2022-09-10T22:31:17.070Z,93.65
2022-09-10T22:33:45.633Z,92.28
2022-09-10T22:36:17.309Z,92.25
2022-09-10T22:38:44.125Z,91.60
2022-09-10T22:41:10.621Z,90.66
2022-09-10T22:43:38.398Z,90.76
2022-09-10T22:46:09.215Z,90.43
2022-09-10T22:48:40.939Z,90.85
2022-09-10T22:51:11.223Z,91.28
2022-09-10T22:53:40.119Z,90.75
2022-09-10T22:56:08.049Z,91.10
2022-09-10T22:58:36.035Z,90.33
2022-09-10T23:01:08.055Z,91.59
2022-09-10T23:03:34.963Z,90.66
2022-09-10T23:06:22.217Z,91.21
2022-09-10T23:08:51.827Z,90.55
2022-09-10T23:11:25.391Z,90.83
2022-09-10T23:13:54.540Z,90.72
2022-09-10T23:16:28.685Z,90.24
2022-09-10T23:18:57.391Z,90.58
2022-09-10T23:21:26.040Z,90.13
2022-09-10T23:23:55.267Z,90.45
2022-09-10T23:26:22.979Z,90.11
2022-09-10T23:28:50.556Z,90.59
2022-09-10T23:31:21.040Z,90.88
2022-09-10T23:33:59.059Z,91.12
2022-09-10T23:36:27.272Z,91.17
2022-09-10T23:38:53.927Z,91.14
2022-09-10T23:41:20.358Z,91.11
2022-09-10T23:43:47.289Z,90.28
2022-09-10T23:46:14.325Z,89.50
2022-09-10T23:48:45.808Z,90.30
2022-09-10T23:51:14.353Z,89.15
2022-09-10T23:53:42.525Z,90.41
2022-09-10T23:56:09.013Z,90.19
2022-09-10T23:58:35.376Z,90.45
